Impacts TAF Board INFO
FOR SITUATIONAL AWARENESS. NOT TO BE USED FOR FLIGHT PLANNING PURPOSES.
IDs:

KSEA - Seattle-Tacoma Intl, WA, US

Issued at 1724 UTC 24 Jun 2017
Updated at 2043 UTC 24 Jun 2017
Potential Impact None Slight Moderate High
Time1953Z 24/21Z 24/22Z 24/23Z 25/00Z 25/01Z 25/02Z 25/03Z 25/04Z 25/05Z 25/06Z 25/07Z 25/08Z 25/09Z>>
Type OBS PRVL PRVL PRVL PRVL PRVL PRVL PRVL PRVL PRVL PRVL PRVL PRVL PRVL
VIS 10 >6 >6 >6 >6 >6 >6 >6 >6 >6 >6 >6 >6 >6
CIG -- -- -- -- -- -- -- -- -- -- -- -- -- --
Cover CLR SKC SKC SKC SKC SKC SKC SKC SKC SKC SKC SKC SKC SKC
FltCat VFR VFR VFR VFR VFR VFR VFR VFR VFR VFR VFR VFR VFR VFR
WX -- -- -- -- -- -- -- -- -- -- -- -- -- --
WDir 310 350 350 350 350 350 350 350 350 350 40 40 40 40
WSpd 7 11 11 11 11 11 11 11 11 11 6 6 6 6
WGst -- -- -- -- -- -- -- -- -- -- -- -- -- --

Raw TAF
KSEA 241724Z 2418/2524 35011KT P6SM SKC
  FM250600 04006KT P6SM SKC
  FM251900 31006KT P6SM SKC


Raw METAR
KSEA 241953Z 31007KT 10SM CLR 28/14 A3011 RMK AO2 SLP199 T02830139
KSEA 241853Z 01009KT 10SM CLR 27/12 A3012 RMK AO2 SLP203 T02720122
KSEA 241753Z 36009KT 10SM CLR 26/11 A3013 RMK AO2 SLP208 T02560111 10256 20161 58005

METAR Board
Radar Display
Forecast Discussion

FOR SITUATIONAL AWARENESS. NOT TO BE USED FOR FLIGHT PLANNING PURPOSES.

Page loaded:  20:43 UTC  |   01:43 PM Pacific  |   02:43 PM Mountain  |   03:43 PM Central  |   04:43 PM Eastern

 

ADVISORIES

FORECASTS

FORECASTS

OBSERVATIONS

USER TOOLS

ABOUT US